Hakui, Japan
Current Conditions -  °F | °C
As of 9:00 PM on Sunday 21 Dec 2014 (Local Time) from RJNT Reporting Station
Snow Showers Snow Showers  
Wind Chill: 29°   Ceiling: 1000
Heat Index: 36°   Visibility: 4mi
Dew Point: 32°   Wind: 9mph
Humidity: 87%   Direction: 200°SSW
Pressure: 29.94"   Gusts: NA
Location:  36.9°N, 136.77°E
Report Text: RJNT 211200Z 20008KT 6000 -SHSNRA FEW005 BKN010 BKN020 02/00 Q1014
Loading
Personal Weather Stations






























Interactive Weather Map New forecast layout! Learn more

10-Day Weather Forecast

Advertisements
Track Severe Weather on mobile